Time;durP1;ratioP1;P1;durP2;ratioP2;P2;SDS_P1;SDS_P2;PMS_P1;PMS_P2;Temp;Humidity;BMP_temperature;BMP_pressure;BME280_temperature;BME280_humidity;BME280_pressure;Samples;Min_cycle;Max_cycle;Signal;HPM_P1;HPM_P2
2022/12/14 00:01:18;;;;;;;33.28;20.42;;;-2.40;99.90;;;-3.93;100.00;96033.13;5032782;28;20544;-73
2022/12/14 00:03:45;;;;;;;31.83;19.55;;;-2.40;99.90;;;-3.93;100.00;96029.75;5033362;28;20423;-75
2022/12/14 00:06:13;;;;;;;32.83;19.45;;;-2.40;99.90;;;-3.91;100.00;96020.78;5033328;28;20403;-75
2022/12/14 00:11:18;;;;;;;28.35;18.80;;;-2.40;99.90;;;-3.81;100.00;96004.13;5029931;28;20427;-74
2022/12/14 00:13:49;;;;;;;30.95;19.42;;;-2.30;99.90;;;-3.77;100.00;95998.38;5032639;28;20401;-75
2022/12/14 00:16:16;;;;;;;34.60;20.87;;;-2.30;99.90;;;-3.80;100.00;96000.53;5033123;28;20923;-74
2022/12/14 00:18:44;;;;;;;37.58;21.45;;;-2.30;99.90;;;-3.82;100.00;95979.25;5032809;28;20403;-74
2022/12/14 00:21:13;;;;;;;30.80;19.30;;;-2.30;99.90;;;-3.83;100.00;95970.69;5032812;28;20444;-74
2022/12/14 00:23:41;;;;;;;35.58;20.73;;;-2.30;99.90;;;-3.85;100.00;95977.09;5032428;28;20423;-75
2022/12/14 00:26:09;;;;;;;34.25;19.88;;;-2.30;99.90;;;-3.86;100.00;95976.28;5032868;28;20756;-74
2022/12/14 00:28:36;;;;;;;33.90;19.95;;;-2.40;99.90;;;-3.81;100.00;95973.09;5032650;28;20857;-74
2022/12/14 00:31:04;;;;;;;32.65;20.23;;;-2.30;99.90;;;-3.78;100.00;95970.94;5032464;28;20908;-74
2022/12/14 00:33:30;;;;;;;30.58;19.65;;;-2.30;99.90;;;-3.73;100.00;95967.75;5031877;28;20446;-74
2022/12/14 00:36:08;;;;;;;32.85;19.98;;;-2.30;99.90;;;-3.71;100.00;95982.09;5032667;28;20785;-75
2022/12/14 00:38:35;;;;;;;34.13;20.67;;;-2.20;99.90;;;-3.71;100.00;95974.31;5014953;28;20399;-75
2022/12/14 00:41:01;;;;;;;31.40;20.25;;;-2.20;99.90;;;-3.65;100.00;95977.91;5032245;28;20411;-75
2022/12/14 00:43:27;;;;;;;37.97;20.50;;;-2.20;99.90;;;-3.65;100.00;95970.16;5032006;28;20492;-75
2022/12/14 00:45:54;;;;;;;34.75;21.08;;;-2.20;99.90;;;-3.65;100.00;95967.56;5032463;28;20465;-75
2022/12/14 00:48:23;;;;;;;34.85;20.65;;;-2.20;99.90;;;-3.65;100.00;95960.59;5032420;28;20884;-75
2022/12/14 00:50:50;;;;;;;36.13;21.38;;;-2.20;99.90;;;-3.63;100.00;95963.00;5032089;28;20410;-75
2022/12/14 00:53:16;;;;;;;35.30;21.10;;;-2.10;99.90;;;-3.60;100.00;95957.41;5031334;28;20407;-75
2022/12/14 00:55:44;;;;;;;32.10;20.50;;;-2.10;99.90;;;-3.60;100.00;95967.75;5032258;28;20415;-75
2022/12/14 00:58:13;;;;;;;33.92;20.30;;;-2.10;99.90;;;-3.61;100.00;95968.78;5032212;28;20955;-75
2022/12/14 01:00:40;;;;;;;31.83;19.63;;;-2.10;99.90;;;-3.61;100.00;95969.53;5031935;28;20407;-75
2022/12/14 01:03:06;;;;;;;38.08;22.08;;;-2.10;99.90;;;-3.63;100.00;95973.34;5031273;28;20411;-75
2022/12/14 01:05:35;;;;;;;37.17;21.88;;;-2.10;99.90;;;-3.63;100.00;95984.47;5032002;28;20437;-75
2022/12/14 01:08:01;;;;;;;35.75;21.67;;;-2.10;99.90;;;-3.70;100.00;95981.09;5032030;28;20418;-75
2022/12/14 01:10:27;;;;;;;34.78;20.95;;;-2.20;99.90;;;-3.76;100.00;95974.09;5032129;28;20407;-75
2022/12/14 01:12:53;;;;;;;36.33;21.02;;;-2.30;99.90;;;-3.77;100.00;95967.34;5031257;28;20403;-75
2022/12/14 01:15:18;;;;;;;30.02;18.88;;;-2.30;99.90;;;-3.72;100.00;95964.97;5031899;28;20418;-75
2022/12/14 01:17:44;;;;;;;37.42;21.33;;;-2.30;99.90;;;-3.74;100.00;95956.59;5030598;28;20425;-74
2022/12/14 01:20:11;;;;;;;32.28;19.92;;;-2.20;99.90;;;-3.67;100.00;95960.00;5031638;28;20493;-74
2022/12/14 01:22:38;;;;;;;31.63;20.48;;;-2.20;99.90;;;-3.65;100.00;95955.44;5030847;28;20418;-74
2022/12/14 01:25:05;;;;;;;34.88;21.55;;;-2.20;99.90;;;-3.59;100.00;95946.09;5031806;28;20468;-75
2022/12/14 01:27:31;;;;;;;36.03;21.42;;;-2.10;99.90;;;-3.65;100.00;95958.03;5031688;28;20423;-75
2022/12/14 01:29:57;;;;;;;36.17;22.17;;;-2.20;99.90;;;-3.61;100.00;95955.84;5031439;28;20419;-75
2022/12/14 01:32:23;;;;;;;41.03;23.05;;;-2.10;99.90;;;-3.63;100.00;95957.81;5030808;28;20414;-75
2022/12/14 01:34:48;;;;;;;36.55;21.25;;;-2.20;99.90;;;-3.64;100.00;95961.41;5031286;28;20403;-74
2022/12/14 01:37:15;;;;;;;37.90;22.13;;;-2.20;99.90;;;-3.61;100.00;95966.19;5031476;28;20395;-75
2022/12/14 01:39:45;;;;;;;34.80;21.08;;;-2.10;99.90;;;-3.61;100.00;95973.94;5031404;28;20758;-75
2022/12/14 01:42:13;;;;;;;36.10;20.02;;;-2.10;99.90;;;-3.59;100.00;95975.31;5030740;28;20403;-75
2022/12/14 01:44:57;;;;;;;35.20;22.13;;;-2.10;99.90;;;-3.64;100.00;95969.16;5030966;28;20903;-75
2022/12/14 01:47:31;;;;;;;34.63;20.92;;;-2.10;99.90;;;-3.60;100.00;95973.72;5031033;28;20426;-75
2022/12/14 01:50:06;;;;;;;32.42;19.98;;;-2.10;99.90;;;-3.58;100.00;95960.59;5031181;28;20399;-75
2022/12/14 01:52:37;;;;;;;35.63;21.20;;;-2.10;99.90;;;-3.57;100.00;95954.44;5030517;28;20410;-75
2022/12/14 01:55:10;;;;;;;34.20;21.48;;;-2.10;99.90;;;-3.55;100.00;95942.91;5030691;28;20400;-75
2022/12/14 01:57:40;;;;;;;37.28;23.10;;;-2.10;99.90;;;-3.53;100.00;95950.47;5031217;28;20387;-75
2022/12/14 02:00:09;;;;;;;36.13;22.67;;;-2.10;99.90;;;-3.51;100.00;95933.75;5013214;28;20417;-75
2022/12/14 02:02:37;;;;;;;35.33;21.98;;;-2.00;99.90;;;-3.51;100.00;95933.75;5030536;28;20399;-75
2022/12/14 02:05:06;;;;;;;33.88;20.30;;;-2.00;99.90;;;-3.52;100.00;95931.38;5031003;28;20457;-75
2022/12/14 02:07:32;;;;;;;35.37;21.87;;;-2.00;99.90;;;-3.50;100.00;95934.56;5030947;28;20846;-75
2022/12/14 02:10:02;;;;;;;39.85;22.40;;;-2.00;99.90;;;-3.58;100.00;95920.03;5030723;28;20415;-75
2022/12/14 02:12:35;;;;;;;35.42;21.42;;;-2.10;99.90;;;-3.60;100.00;95918.63;5029850;28;20882;-75
2022/12/14 02:15:02;;;;;;;31.85;20.38;;;-2.10;99.90;;;-3.59;100.00;95928.78;5030716;28;20407;-75
2022/12/14 02:17:37;;;;;;;29.80;18.90;;;-2.10;99.90;;;-3.57;100.00;95933.75;5030898;28;20407;-74
2022/12/14 02:20:04;;;;;;;32.60;20.37;;;-2.10;99.90;;;-3.55;100.00;95934.38;5030732;28;20933;-75
2022/12/14 02:23:16;;;;;;;35.03;21.73;;;-2.10;99.90;;;-3.53;100.00;95909.06;5012238;28;20399;-75
2022/12/14 02:26:14;;;;;;;33.28;20.88;;;-2.10;99.90;;;-3.51;100.00;95907.09;5026954;28;20812;-74
2022/12/14 02:29:36;;;;;;;35.65;20.40;;;-2.00;99.90;;;-3.46;100.00;95901.34;5030371;28;20427;-75
2022/12/14 02:32:25;;;;;;;35.00;21.85;;;-2.00;99.90;;;-3.47;100.00;95918.66;5029739;28;20399;-75
2022/12/14 02:35:00;;;;;;;36.38;21.35;;;-2.00;99.90;;;-3.44;100.00;95914.84;5030245;28;20399;-75
2022/12/14 02:37:37;;;;;;;37.45;21.67;;;-2.00;99.90;;;-3.51;100.00;95918.25;5030345;28;20403;-75
2022/12/14 02:40:19;;;;;;;35.90;21.63;;;-2.00;99.90;;;-3.55;100.00;95916.25;5030316;28;20977;-74
2022/12/14 02:42:55;;;;;;;32.47;19.90;;;-2.10;99.90;;;-3.56;100.00;95925.00;5029358;28;20437;-75
2022/12/14 02:45:31;;;;;;;30.02;19.90;;;-2.10;99.90;;;-3.54;100.00;95918.66;5030268;28;20497;-75
2022/12/14 02:48:05;;;;;;;33.42;21.55;;;-2.10;99.90;;;-3.53;100.00;95912.47;5030151;28;20501;-75
2022/12/14 02:50:40;;;;;;;32.47;20.58;;;-2.00;99.90;;;-3.56;100.00;95904.31;5030093;28;20396;-75
2022/12/14 02:53:17;;;;;;;35.10;20.50;;;-2.10;99.90;;;-3.49;100.00;95901.72;5029335;28;20447;-75
2022/12/14 02:55:48;;;;;;;33.83;21.45;;;-2.00;99.90;;;-3.56;100.00;95892.19;5030016;28;20406;-75
2022/12/14 02:58:21;;;;;;;32.97;20.23;;;-2.10;99.90;;;-3.55;100.00;95891.19;5030057;28;20419;-75
2022/12/14 03:00:47;;;;;;;29.15;19.58;;;-2.00;99.90;;;-3.52;100.00;95889.97;5012289;28;20449;-74
2022/12/14 03:03:15;;;;;;;35.45;21.05;;;-2.00;99.90;;;-3.48;100.00;95880.06;5029232;28;20411;-74
2022/12/14 03:05:41;;;;;;;32.70;20.83;;;-2.00;99.90;;;-3.45;100.00;95880.44;5029639;28;20433;-74
2022/12/14 03:08:12;;;;;;;32.83;20.23;;;-2.00;99.90;;;-3.41;100.00;95881.63;5029419;28;20430;-75
2022/12/14 03:10:46;;;;;;;32.55;20.23;;;-1.90;99.90;;;-3.39;100.00;95874.47;5029730;28;20457;-75
2022/12/14 03:13:20;;;;;;;37.88;22.63;;;-1.90;99.90;;;-3.38;100.00;95880.44;5028911;28;20958;-75
2022/12/14 03:15:53;;;;;;;35.17;21.73;;;-1.90;99.90;;;-3.41;100.00;95863.53;5029831;28;20409;-75
2022/12/14 03:18:24;;;;;;;36.38;21.98;;;-1.90;99.90;;;-3.49;100.00;95870.69;5029808;28;20490;-75
2022/12/14 03:20:53;;;;;;;32.13;20.63;;;-2.00;99.90;;;-3.47;100.00;95869.50;5029816;28;20400;-75
2022/12/14 03:23:23;;;;;;;33.83;21.65;;;-2.00;99.90;;;-3.51;100.00;95876.84;5028894;28;20490;-75
2022/12/14 03:25:57;;;;;;;32.83;21.33;;;-2.00;99.90;;;-3.56;100.00;95876.66;5029942;28;20403;-75
2022/12/14 03:28:29;;;;;;;31.33;20.25;;;-2.10;99.90;;;-3.51;100.00;95865.72;5029606;28;20900;-75
2022/12/14 03:31:03;;;;;;;32.75;21.27;;;-2.00;99.90;;;-3.49;100.00;95866.31;5029614;28;20498;-75
2022/12/14 03:33:33;;;;;;;35.90;22.73;;;-2.00;99.90;;;-3.46;100.00;95862.56;5028917;28;20411;-75
2022/12/14 03:36:09;;;;;;;34.58;21.92;;;-2.00;99.90;;;-3.44;100.00;95869.09;5029679;28;20399;-75
2022/12/14 03:38:39;;;;;;;38.13;24.05;;;-1.90;99.90;;;-3.49;100.00;95855.19;5029722;28;20403;-75
2022/12/14 03:41:17;;;;;;;33.60;21.42;;;-2.00;99.90;;;-3.45;100.00;95848.59;5029372;28;20490;-75
2022/12/14 03:44:01;;;;;;;37.75;24.08;;;-2.00;99.90;;;-3.43;100.00;95844.81;5029227;28;20406;-75
2022/12/14 03:46:39;;;;;;;36.42;23.48;;;-1.90;99.90;;;-3.40;100.00;95843.63;5029679;28;20399;-75
2022/12/14 03:49:17;;;;;;;39.60;25.08;;;-1.90;99.90;;;-3.41;100.00;95835.06;5029455;28;21136;-75
2022/12/14 03:51:56;;;;;;;40.97;25.98;;;-1.90;99.90;;;-3.43;100.00;95839.66;5028817;28;20454;-74
2022/12/14 03:54:32;;;;;;;37.97;23.87;;;-2.00;99.90;;;-3.46;100.00;95837.47;5029405;28;20423;-75
2022/12/14 03:57:06;;;;;;;35.30;22.70;;;-2.00;99.90;;;-3.45;100.00;95835.66;5029566;28;20804;-75
2022/12/14 03:59:38;;;;;;;37.17;23.45;;;-2.00;99.90;;;-3.41;100.00;95831.69;5029470;28;20409;-75
2022/12/14 04:02:10;;;;;;;36.55;23.05;;;-1.90;99.90;;;-3.40;100.00;95826.31;5028692;28;20410;-75
2022/12/14 04:04:48;;;;;;;37.37;24.03;;;-1.90;99.90;;;-3.38;100.00;95815.78;5029161;28;20400;-75
2022/12/14 04:07:22;;;;;;;36.10;23.83;;;-1.90;99.90;;;-3.35;100.00;95817.94;5011657;28;20477;-74
2022/12/14 04:09:53;;;;;;;35.90;23.33;;;-1.90;99.90;;;-3.33;100.00;95813.38;5029263;28;20435;-75
2022/12/14 04:21:03;;;;;;;41.78;25.75;;;-1.90;99.90;;;-3.39;100.00;95799.47;5052828;28;20416;-74
2022/12/14 04:26:31;;;;;;;37.63;24.13;;;-1.90;99.90;;;-3.41;100.00;95790.31;5052821;28;20392;-74
2022/12/14 04:31:52;;;;;;;35.47;23.80;;;-1.90;99.90;;;-3.38;100.00;95782.16;5052075;28;21067;-75
2022/12/14 04:34:22;;;;;;;38.47;24.15;;;-1.90;99.90;;;-3.36;100.00;95772.38;5052481;28;20398;-75
2022/12/14 04:36:54;;;;;;;39.28;25.60;;;-1.90;99.90;;;-3.35;100.00;95772.19;5052382;28;20477;-75
2022/12/14 04:39:34;;;;;;;44.97;27.57;;;-1.90;99.90;;;-3.35;100.00;95773.97;5052640;28;20487;-74
2022/12/14 04:42:04;;;;;;;42.17;26.70;;;-1.90;99.90;;;-3.31;100.00;95770.78;5051814;28;20386;-74
2022/12/14 04:44:34;;;;;;;41.20;25.83;;;-1.90;99.90;;;-3.31;100.00;95775.16;5052444;28;20401;-74
2022/12/14 04:47:03;;;;;;;38.08;25.63;;;-1.80;99.90;;;-3.31;100.00;95775.97;5052443;28;20903;-75
2022/12/14 04:49:38;;;;;;;41.03;26.55;;;-1.80;99.90;;;-3.30;100.00;95776.72;5034628;28;20408;-75
2022/12/14 04:52:13;;;;;;;40.25;26.35;;;-1.80;99.90;;;-3.31;100.00;95775.97;5031653;28;20407;-75
2022/12/14 04:54:45;;;;;;;43.80;27.50;;;-1.80;99.90;;;-3.33;100.00;95770.19;5031936;28;20481;-75
2022/12/14 04:57:18;;;;;;;42.50;26.98;;;-1.90;99.90;;;-3.35;100.00;95756.66;5014604;28;20502;-75
2022/12/14 04:59:44;;;;;;;39.30;26.13;;;-1.90;99.90;;;-3.34;100.00;95755.66;5032101;28;20532;-73
2022/12/14 05:02:18;;;;;;;39.10;25.45;;;-1.80;99.90;;;-3.30;100.00;95746.47;5031376;28;20920;-75
2022/12/14 05:04:54;;;;;;;43.60;27.20;;;-1.80;99.90;;;-3.30;100.00;95740.50;5031842;28;20521;-75
2022/12/14 05:07:36;;;;;;;44.08;27.70;;;-1.80;99.90;;;-3.31;100.00;95746.72;5032022;28;20407;-73
2022/12/14 05:10:07;;;;;;;38.45;25.30;;;-1.80;99.90;;;-3.27;100.00;95747.88;5031725;28;20399;-75
2022/12/14 05:12:41;;;;;;;37.22;24.90;;;-1.80;99.90;;;-3.26;100.00;95752.06;5031272;28;20392;-75
2022/12/14 05:15:13;;;;;;;37.78;24.88;;;-1.80;99.90;;;-3.24;100.00;95745.69;5031839;28;20403;-75
2022/12/14 05:17:40;;;;;;;36.53;24.00;;;-1.80;99.90;;;-3.21;100.00;95753.03;5020738;28;20891;-76
2022/12/14 05:20:14;;;;;;;36.10;25.02;;;-1.70;99.90;;;-3.19;100.00;95739.88;5020612;28;20884;-76
2022/12/14 05:22:42;;;;;;;38.43;25.00;;;-1.70;99.90;;;-3.18;100.00;95741.47;5018796;28;20452;-76
2022/12/14 05:25:08;;;;;;;38.05;24.67;;;-1.70;99.90;;;-3.16;100.00;95742.06;5023289;28;20622;-75
2022/12/14 05:27:34;;;;;;;41.25;26.63;;;-1.70;99.90;;;-3.17;100.00;95748.25;5023889;28;20475;-75
2022/12/14 05:30:00;;;;;;;41.08;28.20;;;-1.70;99.90;;;-3.16;100.00;95744.66;5019244;28;20416;-75
2022/12/14 05:32:27;;;;;;;43.78;27.08;;;-1.70;99.90;;;-3.16;100.00;95735.09;5023320;28;20411;-75
2022/12/14 05:34:53;;;;;;;41.63;27.65;;;-1.70;99.90;;;-3.20;100.00;95733.91;5024605;28;20502;-75
2022/12/14 05:37:19;;;;;;;42.10;27.98;;;-1.70;99.90;;;-3.26;100.00;95739.13;5020865;28;20409;-75
2022/12/14 05:39:46;;;;;;;42.55;26.88;;;-1.80;99.90;;;-3.27;100.00;95734.94;5020364;28;20892;-75
2022/12/14 05:42:12;;;;;;;41.83;27.43;;;-1.80;99.90;;;-3.30;100.00;95737.94;5021354;28;20913;-75
2022/12/14 05:44:38;;;;;;;44.03;28.02;;;-1.80;99.90;;;-3.30;100.00;95732.75;5020307;28;20412;-74
2022/12/14 05:47:04;;;;;;;46.55;28.90;;;-1.80;99.90;;;-3.33;100.00;95730.59;5020551;28;20403;-74
2022/12/14 05:49:30;;;;;;;43.88;27.88;;;-1.90;99.90;;;-3.32;100.00;95714.88;5003412;28;20476;-74
2022/12/14 05:51:56;;;;;;;43.08;27.67;;;-1.80;99.90;;;-3.30;100.00;95722.41;5030587;28;20399;-73
2022/12/14 05:54:22;;;;;;;42.87;27.03;;;-1.80;99.90;;;-3.28;100.00;95720.41;5030825;28;20912;-73
2022/12/14 05:56:49;;;;;;;48.25;30.50;;;-1.80;99.90;;;-3.31;100.00;95715.66;5031039;28;20430;-74
2022/12/14 05:59:16;;;;;;;41.20;27.48;;;-1.80;99.90;;;-3.27;100.00;95715.03;5030935;28;20495;-75
2022/12/14 06:01:42;;;;;;;45.30;29.13;;;-1.80;99.90;;;-3.24;100.00;95703.50;5030451;28;20403;-75
2022/12/14 06:04:14;;;;;;;43.72;29.23;;;-1.80;99.90;;;-3.23;100.00;95699.88;5030691;28;20549;-75
2022/12/14 06:06:40;;;;;;;42.22;27.77;;;-1.80;99.90;;;-3.20;100.00;95691.72;5030796;28;20415;-74
2022/12/14 06:11:41;;;;;;;44.45;27.65;;;-1.70;99.90;;;-3.17;100.00;95699.88;5047805;28;20906;-76
2022/12/14 06:14:10;;;;;;;41.95;28.30;;;-1.70;99.90;;;-3.14;100.00;95693.47;5050415;28;20964;-76
2022/12/14 06:16:38;;;;;;;45.08;30.27;;;-1.70;99.90;;;-3.13;100.00;95692.47;5050372;28;20488;-76
2022/12/14 06:19:04;;;;;;;43.15;28.33;;;-1.70;99.90;;;-3.11;100.00;95695.66;5050584;28;20916;-76
2022/12/14 06:21:33;;;;;;;48.43;30.87;;;-1.60;99.90;;;-3.12;100.00;95707.81;5030035;28;20425;-76
2022/12/14 06:23:59;;;;;;;46.28;30.38;;;-1.60;99.90;;;-3.13;100.00;95708.81;5030164;28;20775;-75
2022/12/14 06:26:27;;;;;;;49.28;31.02;;;-1.70;99.90;;;-3.14;100.00;95706.41;5030670;28;20399;-76
2022/12/14 06:28:54;;;;;;;50.00;31.77;;;-1.70;99.90;;;-3.20;100.00;95699.47;5030615;28;20908;-76
2022/12/14 06:31:23;;;;;;;45.75;30.02;;;-1.70;99.90;;;-3.21;100.00;95700.47;5029827;28;20445;-75
2022/12/14 06:33:50;;;;;;;48.13;31.08;;;-1.70;99.90;;;-3.22;100.00;95697.09;5030186;28;20400;-75
2022/12/14 06:36:18;;;;;;;53.80;33.40;;;-1.70;99.90;;;-3.28;100.00;95705.69;5030571;28;20919;-76
2022/12/14 06:38:44;;;;;;;52.70;33.00;;;-1.80;99.90;;;-3.31;100.00;95697.56;5030483;28;20406;-76
2022/12/14 06:41:10;;;;;;;53.55;32.20;;;-1.80;99.90;;;-3.31;100.00;95682.84;5030231;28;20847;-76
2022/12/14 06:43:36;;;;;;;53.60;34.22;;;-1.80;99.90;;;-3.29;100.00;95677.44;5029661;28;20490;-75
2022/12/14 06:46:07;;;;;;;54.67;34.67;;;-1.80;99.90;;;-3.31;100.00;95676.88;5030393;28;20403;-75
2022/12/14 06:48:35;;;;;;;55.83;34.78;;;-1.80;99.90;;;-3.30;100.00;95670.66;5030158;28;20419;-75
2022/12/14 06:51:01;;;;;;;52.53;33.30;;;-1.90;99.90;;;-3.33;100.00;95668.50;5030041;28;21213;-75
2022/12/14 06:53:27;;;;;;;60.83;36.35;;;-1.90;99.90;;;-3.35;100.00;95663.53;5029293;28;20474;-74
2022/12/14 06:55:53;;;;;;;59.50;37.90;;;-1.90;99.90;;;-3.35;100.00;95658.38;5030213;28;20453;-74
2022/12/14 06:58:19;;;;;;;57.08;35.67;;;-1.80;99.90;;;-3.36;100.00;95658.56;5030168;28;20461;-74
2022/12/14 07:00:45;;;;;;;57.55;35.47;;;-1.90;99.90;;;-3.38;100.00;95665.75;5027643;28;20421;-75
2022/12/14 07:03:11;;;;;;;55.33;33.35;;;-1.90;99.90;;;-3.37;100.00;95662.16;5029069;28;20758;-75
2022/12/14 07:05:38;;;;;;;57.28;35.42;;;-1.90;99.90;;;-3.35;100.00;95652.38;5030236;28;20410;-75
2022/12/14 07:08:04;;;;;;;68.20;40.75;;;-1.90;99.90;;;-3.37;100.00;95656.97;5028445;28;21003;-75
2022/12/14 07:10:30;;;;;;;67.25;39.85;;;-1.90;99.90;;;-3.41;100.00;95646.25;5042572;28;20406;-75
2022/12/14 07:12:56;;;;;;;66.53;39.00;;;-1.90;99.90;;;-3.42;100.00;95647.25;5040150;28;20845;-76
2022/12/14 07:15:22;;;;;;;69.03;40.80;;;-1.90;99.90;;;-3.46;100.00;95643.50;5034348;28;20413;-76
2022/12/14 07:17:48;;;;;;;69.55;41.33;;;-2.00;99.90;;;-3.46;100.00;95633.16;5033158;28;20416;-73
2022/12/14 07:20:14;;;;;;;65.70;39.25;;;-1.90;99.90;;;-3.42;100.00;95630.94;5033945;28;20827;-73
2022/12/14 07:22:41;;;;;;;64.30;39.22;;;-1.90;99.90;;;-3.38;100.00;95632.13;5033544;28;20423;-74
2022/12/14 07:25:07;;;;;;;60.17;37.63;;;-1.90;99.90;;;-3.35;100.00;95634.28;5033413;28;20463;-74
2022/12/14 07:27:34;;;;;;;62.25;37.50;;;-1.90;99.90;;;-3.30;100.00;95634.44;5033992;28;20524;-74
2022/12/14 07:30:00;;;;;;;61.58;36.67;;;-1.80;99.90;;;-3.26;100.00;95628.66;5018511;28;20486;-73
2022/12/14 07:32:26;;;;;;;54.88;35.58;;;-1.80;99.90;;;-3.22;100.00;95632.41;5026930;28;20406;-73
2022/12/14 07:34:51;;;;;;;60.97;36.55;;;-1.80;99.90;;;-3.18;100.00;95635.41;5029447;28;20399;-74
2022/12/14 07:37:17;;;;;;;58.53;37.90;;;-1.70;99.90;;;-3.14;100.00;95636.56;5029587;28;20402;-74
2022/12/14 07:39:45;;;;;;;66.88;41.72;;;-1.70;99.90;;;-3.14;100.00;95631.38;5029511;28;20407;-74
2022/12/14 07:42:11;;;;;;;67.57;41.75;;;-1.60;99.90;;;-3.15;100.00;95628.00;5011020;28;20438;-74
2022/12/14 07:44:37;;;;;;;59.88;38.22;;;-1.70;99.90;;;-3.12;100.00;95621.63;5029366;28;20494;-74
2022/12/14 07:47:03;;;;;;;54.43;34.93;;;-1.70;99.90;;;-3.05;100.00;95622.38;5029448;28;20506;-74
2022/12/14 07:49:29;;;;;;;60.30;37.80;;;-1.60;99.90;;;-3.03;100.00;95614.41;5023239;28;20419;-74
2022/12/14 07:51:55;;;;;;;62.47;37.13;;;-1.60;99.90;;;-3.00;100.00;95614.75;5026905;28;20453;-73
2022/12/14 07:54:22;;;;;;;58.47;36.63;;;-1.60;99.90;;;-2.96;100.00;95610.75;5032442;28;20410;-73
2022/12/14 07:56:49;;;;;;;57.13;36.53;;;-1.50;99.90;;;-2.91;100.00;95605.75;5033266;28;20430;-73
2022/12/14 07:59:15;;;;;;;53.45;33.45;;;-1.50;99.90;;;-2.86;100.00;95605.13;5033272;28;20399;-73
2022/12/14 08:01:42;;;;;;;55.35;34.95;;;-1.40;99.90;;;-2.83;100.00;95600.31;5032497;28;20407;-73
2022/12/14 08:04:10;;;;;;;54.75;35.30;;;-1.40;99.90;;;-2.79;100.00;95595.50;5032981;28;20950;-73
2022/12/14 08:06:37;;;;;;;56.43;37.30;;;-1.30;99.90;;;-2.78;100.00;95608.22;5029714;28;20413;-71
2022/12/14 08:09:05;;;;;;;65.47;40.97;;;-1.30;99.90;;;-2.79;100.00;95596.31;5033078;28;20418;-74
2022/12/14 08:11:31;;;;;;;59.45;38.45;;;-1.30;99.90;;;-2.75;100.00;95599.25;5032308;28;20407;-73
2022/12/14 08:14:01;;;;;;;65.32;41.13;;;-1.30;99.90;;;-2.74;100.00;95600.84;5025250;28;20424;-74
2022/12/14 08:16:28;;;;;;;58.40;37.42;;;-1.30;99.90;;;-2.68;100.00;95583.66;5029706;28;20410;-73
2022/12/14 08:18:55;;;;;;;56.13;36.33;;;-1.30;99.90;;;-2.63;100.00;95594.94;5023694;28;20418;-73
2022/12/14 08:21:22;;;;;;;59.00;37.90;;;-1.20;99.90;;;-2.59;100.00;95593.53;5028603;28;20411;-73
2022/12/14 08:23:49;;;;;;;62.22;38.78;;;-1.20;99.90;;;-2.61;100.00;95594.75;5038820;28;20399;-73
2022/12/14 08:26:16;;;;;;;60.33;39.50;;;-1.20;99.90;;;-2.60;100.00;95586.78;5036984;28;20403;-73
2022/12/14 08:28:42;;;;;;;53.00;35.15;;;-1.20;99.90;;;-2.56;100.00;95571.63;5040300;28;20407;-74
2022/12/14 08:31:12;;;;;;;57.78;37.83;;;-1.10;99.90;;;-2.52;100.00;95577.94;5040298;28;21134;-74
2022/12/14 08:33:40;;;;;;;55.38;36.65;;;-1.10;99.90;;;-2.48;100.00;95587.66;5024150;28;20415;-73
2022/12/14 08:36:09;;;;;;;62.10;38.80;;;-1.10;99.90;;;-2.50;100.00;95586.28;5037692;28;20937;-74
2022/12/14 08:38:35;;;;;;;56.22;36.65;;;-1.10;99.90;;;-2.44;100.00;95591.41;5032654;28;20403;-73
2022/12/14 08:41:03;;;;;;;55.43;36.37;;;-1.00;99.90;;;-2.40;100.00;95604.72;5011055;28;20922;-72
2022/12/14 08:43:29;;;;;;;56.55;36.30;;;-1.00;99.90;;;-2.36;100.00;95605.88;5022044;28;20411;-73
2022/12/14 08:45:55;;;;;;;48.97;33.47;;;-1.00;99.90;;;-2.32;100.00;95599.25;5031556;28;20438;-73
2022/12/14 08:48:23;;;;;;;55.97;36.83;;;-0.90;99.90;;;-2.36;100.00;95595.53;5031139;28;20422;-74
2022/12/14 08:50:49;;;;;;;49.85;34.03;;;-0.90;99.90;;;-2.34;100.00;95601.28;5026616;28;20425;-74
2022/12/14 08:53:15;;;;;;;54.97;34.80;;;-0.90;99.90;;;-2.31;100.00;95589.69;5031187;28;20901;-73
2022/12/14 08:55:41;;;;;;;48.58;32.20;;;-0.90;99.90;;;-2.29;100.00;95590.28;5031272;28;20430;-73
2022/12/14 08:58:07;;;;;;;52.90;33.47;;;-0.90;99.90;;;-2.23;100.00;95585.03;5031664;28;20395;-73
2022/12/14 09:00:33;;;;;;;48.30;33.00;;;-0.80;99.90;;;-2.17;100.00;95593.72;5032160;28;20445;-73
2022/12/14 09:02:59;;;;;;;65.80;40.53;;;-0.80;99.90;;;-2.14;100.00;95583.75;5031267;28;20484;-73
2022/12/14 09:05:26;;;;;;;68.90;42.33;;;-0.70;99.90;;;-2.12;100.00;95592.09;5031041;28;20803;-73
2022/12/14 09:07:52;;;;;;;57.70;37.33;;;-0.70;99.90;;;-2.12;100.00;95586.91;5032471;28;20510;-72
2022/12/14 09:10:18;;;;;;;59.88;38.83;;;-0.70;99.90;;;-2.09;100.00;95598.63;5032254;28;20455;-73
2022/12/14 09:12:44;;;;;;;60.23;38.57;;;-0.70;99.90;;;-2.07;100.00;95592.22;5032236;28;20521;-73
2022/12/14 09:15:10;;;;;;;60.78;38.15;;;-0.60;99.90;;;-2.04;100.00;95596.19;5035410;28;20742;-73
2022/12/14 09:17:36;;;;;;;53.00;35.50;;;-0.60;99.90;;;-2.04;100.00;95588.44;5036299;28;20399;-74
2022/12/14 09:20:03;;;;;;;57.40;37.42;;;-0.60;99.90;;;-2.01;100.00;95587.97;5034830;28;20494;-74
2022/12/14 09:22:31;;;;;;;62.20;39.93;;;-0.60;99.90;;;-2.05;100.00;95592.81;5032322;28;20944;-72
2022/12/14 09:24:57;;;;;;;59.42;38.80;;;-0.60;99.90;;;-2.07;100.00;95587.06;5031572;28;20430;-73
2022/12/14 09:27:23;;;;;;;66.45;42.30;;;-0.70;99.90;;;-2.09;100.00;95580.47;5031603;28;20434;-73
2022/12/14 09:29:49;;;;;;;60.25;39.33;;;-0.70;99.90;;;-2.09;100.00;95585.66;5031476;28;20422;-73
2022/12/14 09:32:16;;;;;;;65.47;41.97;;;-0.70;99.90;;;-2.08;100.00;95580.28;5030987;28;20403;-72
2022/12/14 09:34:42;;;;;;;64.50;41.65;;;-0.70;99.90;;;-2.10;100.00;95573.72;5031027;28;20407;-72
2022/12/14 09:37:08;;;;;;;61.70;40.17;;;-0.70;99.90;;;-2.11;100.00;95565.19;5031499;28;20528;-73
2022/12/14 09:39:35;;;;;;;61.20;39.05;;;-0.70;99.90;;;-2.11;100.00;95561.78;5031424;28;20391;-73
2022/12/14 09:42:16;;;;;;;63.08;41.10;;;-0.70;99.90;;;-2.11;100.00;95564.38;5030829;28;20406;-73
2022/12/14 09:44:56;;;;;;;64.57;41.17;;;-0.70;99.90;;;-2.10;100.00;95563.34;5031310;28;20915;-73
2022/12/14 09:47:31;;;;;;;69.60;41.72;;;-0.70;99.90;;;-2.10;100.00;95569.31;5031395;28;20414;-73
2022/12/14 09:50:01;;;;;;;73.82;43.78;;;-0.70;99.90;;;-2.09;100.00;95575.31;5031290;28;20489;-73
2022/12/14 09:52:36;;;;;;;76.38;45.83;;;-0.70;99.90;;;-2.11;100.00;95574.75;5030567;28;20399;-73
2022/12/14 09:55:15;;;;;;;76.60;46.17;;;-0.70;99.90;;;-2.14;100.00;95565.59;5031259;28;20405;-73
2022/12/14 09:57:42;;;;;;;64.22;41.45;;;-0.70;99.90;;;-2.16;100.00;95561.63;5031235;28;20404;-73
2022/12/14 10:00:16;;;;;;;72.50;43.95;;;-0.70;99.90;;;-2.18;100.00;95561.84;5031082;28;20880;-73
2022/12/14 10:03:01;;;;;;;71.63;43.42;;;-0.70;99.90;;;-2.19;100.00;95565.47;5030267;28;20473;-73
2022/12/14 10:05:50;;;;;;;63.35;41.20;;;-0.80;99.90;;;-2.22;100.00;95565.88;5030992;28;20403;-74
2022/12/14 10:08:23;;;;;;;53.20;34.33;;;-0.80;99.90;;;-2.20;100.00;95565.66;5030910;28;20935;-73
2022/12/14 10:11:01;;;;;;;43.17;27.73;;;-0.80;99.90;;;-2.18;100.00;95563.66;5030643;28;20408;-74
2022/12/14 10:13:42;;;;;;;36.50;24.60;;;-0.80;99.90;;;-2.15;100.00;95566.59;5029931;28;20403;-73
2022/12/14 10:16:21;;;;;;;38.97;25.27;;;-0.70;99.90;;;-2.11;100.00;95566.97;5030449;28;20407;-73
2022/12/14 10:19:08;;;;;;;37.08;24.55;;;-0.70;99.90;;;-2.12;100.00;95558.41;5013058;28;20407;-74
2022/12/14 10:21:45;;;;;;;24.15;17.58;;;-0.70;99.90;;;-2.08;100.00;95550.97;5030224;28;20399;-73
2022/12/14 10:24:20;;;;;;;20.05;14.52;;;-0.70;99.90;;;-2.04;100.00;95550.34;5029291;28;20792;-75
2022/12/14 10:26:51;;;;;;;14.48;11.95;;;-0.60;99.90;;;-2.01;100.00;95551.69;5030856;28;20394;-75
2022/12/14 10:29:27;;;;;;;16.10;11.57;;;-0.60;99.90;;;-1.97;100.00;95558.03;5030674;28;20419;-74
2022/12/14 10:32:03;;;;;;;12.13;9.90;;;-0.60;99.90;;;-1.96;100.00;95550.03;5030069;28;20889;-74